Gorno-Altaysk, Russia
Current Conditions -  °F | °C
As of 4:00 PM on Saturday 25 Oct 2014 (Local Time) from UNBB Reporting Station
Broken Clouds Broken Clouds  
Wind Chill: -4°   Ceiling: 1000
Heat Index:   Visibility: 6mi
Dew Point:   Wind: 13mph
Humidity: 93%   Direction: 280°W
Pressure: 29.8"   Gusts: NA
Location:  51.96°N, 85.96°E
Report Text: UNBB 250900Z 28006MPS 9999 BKN010 01/00 Q1009 NOSIG RMKQFE735/0980 24290151
Loading
Personal Weather Stations






























Interactive Weather Map
Tropical Storm Tracking
New forecast layout! Learn more

10-Day Weather Forecast

Advertisements
Track Severe Weather on mobile